Time;durP1;ratioP1;P1;durP2;ratioP2;P2;SDS_P1;SDS_P2;PMS_P1;PMS_P2;Temp;Humidity;BMP_temperature;BMP_pressure;BME280_temperature;BME280_humidity;BME280_pressure;Samples;Min_cycle;Max_cycle;Signal;HPM_P1;HPM_P2
2022/01/28 00:03:05;;;;;;;6.20;3.70;;;;;;;4.45;74.02;99655.66;109467;1267;22434;-80
2022/01/28 00:05:37;;;;;;;9.30;4.30;;;;;;;4.44;73.84;99647.36;109377;1267;23631;-81
2022/01/28 00:08:07;;;;;;;5.90;3.70;;;;;;;4.44;73.67;99646.40;109226;1270;21989;-81
2022/01/28 00:10:51;;;;;;;8.60;3.30;;;;;;;4.44;73.71;99646.73;108764;1276;22000;-80
2022/01/28 00:13:40;;;;;;;10.40;3.70;;;;;;;4.44;73.61;99640.77;108589;1276;23228;-79
2022/01/28 00:19:14;;;;;;;7.40;3.90;;;;;;;4.36;73.44;99632.13;108709;1279;23835;-81
2022/01/28 00:38:46;;;;;;;6.70;3.20;;;;;;;4.15;72.62;99627.84;110256;1257;23129;-81
2022/01/28 00:41:18;;;;;;;8.30;2.90;;;;;;;4.11;72.66;99633.23;109477;1263;23078;-82
2022/01/28 00:43:50;;;;;;;9.30;2.70;;;;;;;4.12;72.57;99639.96;109071;1269;21995;-82
2022/01/28 00:46:58;;;;;;;6.30;2.80;;;;;;;4.13;72.55;99638.48;108832;1273;22007;-82
2022/01/28 00:49:43;;;;;;;10.00;3.80;;;;;;;4.11;72.44;99639.16;108493;1282;22017;-82
2022/01/28 00:52:13;;;;;;;6.10;3.20;;;;;;;4.12;72.50;99643.59;108211;1283;22020;-82
2022/01/28 00:54:43;;;;;;;7.10;2.80;;;;;;;4.16;72.50;99643.92;108181;1282;23622;-82
2022/01/28 00:57:17;;;;;;;8.80;3.30;;;;;;;4.18;72.33;99643.73;107828;1288;22024;-82
2022/01/28 00:59:51;;;;;;;5.40;2.60;;;;;;;4.20;72.24;99640.04;108003;1282;22970;-79
2022/01/28 01:02:29;;;;;;;8.90;3.80;;;;;;;4.23;72.03;99638.92;108202;1282;22049;-82
2022/01/28 01:05:02;;;;;;;7.50;3.00;;;;;;;4.24;71.89;99641.79;108421;1282;22088;-80
2022/01/28 01:07:41;;;;;;;10.20;3.70;;;;;;;4.26;71.82;99636.41;108557;1276;22921;-80
2022/01/28 01:10:13;;;;;;;11.10;3.30;;;;;;;4.25;71.67;99633.56;108847;1275;22018;-82
2022/01/28 01:12:47;;;;;;;6.30;3.10;;;;;;;4.25;71.58;99630.01;108759;1276;21978;-81
2022/01/28 01:15:34;;;;;;;7.30;3.00;;;;;;;4.25;71.43;99620.98;109072;1267;22029;-81
2022/01/28 01:23:12;;;;;;;7.20;3.00;;;;;;;4.21;71.34;99616.83;108784;1273;22000;-79
2022/01/28 01:28:16;;;;;;;6.30;3.00;;;;;;;4.22;71.27;99609.95;108846;1276;23016;-80
2022/01/28 01:30:58;;;;;;;10.50;2.70;;;;;;;4.21;71.29;99609.48;108798;1276;21994;-80
2022/01/28 01:33:32;;;;;;;5.90;2.50;;;;;;;4.23;71.30;99611.90;108486;1280;22068;-80
2022/01/28 01:36:03;;;;;;;8.40;3.10;;;;;;;4.23;71.28;99617.10;108466;1279;21953;-81
2022/01/28 01:38:39;;;;;;;8.50;2.60;;;;;;;4.23;71.08;99613.44;108446;1279;23603;-80
2022/01/28 01:41:15;;;;;;;7.80;2.30;;;;;;;4.22;71.01;99614.05;107920;1285;21998;-81
2022/01/28 01:44:07;;;;;;;7.00;2.20;;;;;;;4.19;70.88;99611.80;108171;1280;23119;-80
2022/01/28 01:47:11;;;;;;;5.40;2.00;;;;;;;4.15;70.89;99619.35;108489;1277;22011;-82
2022/01/28 01:52:24;;;;;;;6.80;2.30;;;;;;;4.07;70.91;99613.24;108168;1283;21996;-81
2022/01/28 01:54:53;;;;;;;9.70;2.70;;;;;;;4.06;70.85;99610.61;108030;1288;23122;-81
2022/01/28 01:57:23;;;;;;;8.60;2.40;;;;;;;4.01;70.89;99616.77;107995;1285;22016;-81
2022/01/28 01:59:55;;;;;;;9.10;2.90;;;;;;;3.97;71.10;99616.45;108406;1282;23636;-81
2022/01/28 02:02:29;;;;;;;10.20;3.50;;;;;;;3.94;71.29;99614.99;108389;1282;23064;-81
2022/01/28 02:05:14;;;;;;;;;;;;;;;;;;;;;
2022/01/28 02:07:48;;;;;;;10.20;3.00;;;;;;;3.90;71.58;99616.44;108487;1276;22058;-80
2022/01/28 02:10:26;;;;;;;7.40;2.70;;;;;;;3.87;71.75;99614.58;108845;1273;23050;-80
2022/01/28 02:13:08;;;;;;;8.60;3.40;;;;;;;3.85;71.88;99612.52;108968;1270;23056;-82
2022/01/28 02:15:45;;;;;;;11.90;3.10;;;;;;;3.86;72.12;99612.95;109449;1264;247100;-80
2022/01/28 02:18:15;;;;;;;9.90;2.60;;;;;;;3.86;72.20;99619.23;109555;1264;22046;-82
2022/01/28 02:20:58;;;;;;;8.20;2.80;;;;;;;3.88;72.30;99615.40;109833;1264;21985;-81
2022/01/28 02:23:30;;;;;;;11.20;2.80;;;;;;;3.89;72.32;99608.86;109306;1270;23766;-81
2022/01/28 02:26:01;;;;;;;6.40;2.60;;;;;;;3.89;72.41;99609.52;109408;1264;23058;-80
2022/01/28 02:28:41;;;;;;;9.30;3.30;;;;;;;3.91;72.46;99607.45;109608;1262;22563;-81
2022/01/28 02:31:19;;;;;;;7.00;2.50;;;;;;;3.92;72.48;99610.64;109604;1263;22086;-80
2022/01/28 02:33:53;;;;;;;10.00;3.10;;;;;;;3.93;72.45;99618.25;109409;1265;23756;-80
2022/01/28 02:36:27;;;;;;;10.90;2.80;;;;;;;3.94;72.49;99617.80;109435;1265;22740;-80
2022/01/28 02:39:00;;;;;;;9.10;3.40;;;;;;;3.94;72.45;99620.08;109514;1265;23308;-80
2022/01/28 02:41:35;;;;;;;8.80;2.50;;;;;;;3.93;72.45;99625.20;109474;1265;21980;-80
2022/01/28 02:47:04;;;;;;;13.10;3.30;;;;;;;3.91;72.59;99630.98;109568;1265;21990;-81
2022/01/28 02:49:36;;;;;;;5.30;2.00;;;;;;;3.89;72.70;99629.08;110182;1260;24422;-81
2022/01/28 02:52:17;;;;;;;7.50;3.10;;;;;;;3.87;72.74;99627.66;109489;1265;23016;-81
2022/01/28 02:54:50;;;;;;;10.30;2.50;;;;;;;3.85;72.78;99629.79;109322;1265;21976;-81
2022/01/28 02:57:25;;;;;;;;;;;;;;;3.84;72.89;99633.86;109370;1267;23604;-82
2022/01/28 03:00:00;;;;;;;10.00;3.90;;;;;;;3.75;72.95;99635.52;110152;1262;21988;-80
2022/01/28 03:02:34;;;;;;;7.60;2.90;;;;;;;3.74;73.18;99640.91;109341;1265;22434;-81
2022/01/28 03:05:47;;;;;;;;;;;;;;;3.76;73.32;99640.48;109570;1265;21992;-80
2022/01/28 03:08:02;;;;;;;7.10;3.20;;;;;;;3.71;73.35;99636.46;109418;1267;22080;-81
2022/01/28 03:15:52;;;;;;;9.40;4.40;;;;;;;3.74;73.60;99644.38;109125;1270;21979;-81
2022/01/28 03:18:40;;;;;;;9.30;3.80;;;;;;;3.76;73.64;99641.90;109184;1270;22460;-81
2022/01/28 03:21:25;;;;;;;9.10;3.70;;;;;;;3.77;73.73;99643.17;109058;1269;21982;-81
2022/01/28 03:24:02;;;;;;;10.40;3.70;;;;;;;3.78;73.75;99653.19;108750;1276;23758;-82
2022/01/28 03:26:32;;;;;;;8.80;3.40;;;;;;;3.80;73.75;99652.86;108759;1276;22288;-81
2022/01/28 03:29:12;;;;;;;8.90;4.70;;;;;;;3.82;73.76;99660.69;108818;1275;22679;-81
2022/01/28 03:31:54;;;;;;;15.10;5.30;;;;;;;3.83;73.76;99667.59;109045;1270;22063;-81
2022/01/28 03:34:27;;;;;;;6.90;3.30;;;;;;;3.81;73.69;99655.39;109257;1264;22395;-81
2022/01/28 03:37:22;;;;;;;9.50;4.10;;;;;;;3.77;73.77;99667.23;109288;1265;24437;-80
2022/01/28 03:39:53;;;;;;;11.80;3.70;;;;;;;3.75;73.90;99671.20;109464;1267;22219;-80
2022/01/28 03:42:23;;;;;;;9.70;3.90;;;;;;;3.78;73.98;99667.54;109143;1267;21983;-81
2022/01/28 03:44:58;;;;;;;10.30;3.30;;;;;;;3.79;73.92;99670.20;109519;1262;21992;-82
2022/01/28 03:47:41;;;;;;;9.60;3.40;;;;;;;3.79;74.01;99677.36;109885;1262;21995;-81
2022/01/28 03:50:13;;;;;;;8.00;3.20;;;;;;;3.79;74.07;99678.73;109326;1268;21994;-79
2022/01/28 03:52:43;;;;;;;11.50;3.90;;;;;;;3.79;74.07;99674.70;109201;1270;21997;-80
2022/01/28 03:55:15;;;;;;;9.50;4.20;;;;;;;3.79;74.04;99678.71;109022;1273;23013;-82
2022/01/28 03:58:02;;;;;;;11.80;5.30;;;;;;;3.80;74.18;99680.90;108945;1273;22451;-81
2022/01/28 04:00:44;;;;;;;10.80;5.30;;;;;;;3.82;74.13;99694.70;109067;1268;21991;-81
2022/01/28 04:11:26;;;;;;;13.40;3.70;;;;;;;3.84;74.24;99702.48;109260;1267;22051;-81
2022/01/28 04:11:41;;;;;;;10.70;3.90;;;;;;;3.88;74.17;99716.61;109544;1264;23688;-81
2022/01/28 04:19:52;;;;;;;12.90;4.80;;;;;;;3.89;74.08;99728.36;109236;1267;21994;-79
2022/01/28 04:22:31;;;;;;;16.50;5.60;;;;;;;3.89;74.14;99728.66;109161;1267;24304;-81
2022/01/28 04:25:00;;;;;;;15.40;5.40;;;;;;;3.90;74.16;99731.41;109147;1268;21982;-81
2022/01/28 04:27:30;;;;;;;12.10;4.80;;;;;;;3.91;74.15;99739.11;108915;1273;21994;-78
2022/01/28 04:30:00;;;;;;;12.10;5.30;;;;;;;3.91;74.09;99739.64;108683;1273;22072;-81
2022/01/28 04:32:35;;;;;;;13.00;4.30;;;;;;;3.92;74.12;99741.10;109078;1267;21991;-79
2022/01/28 04:35:07;;;;;;;15.20;5.30;;;;;;;3.94;74.13;99736.74;108992;1267;23087;-80
2022/01/28 04:37:51;;;;;;;16.70;4.40;;;;;;;3.96;74.08;99743.34;109150;1270;21987;-79
2022/01/28 04:40:32;;;;;;;13.00;4.30;;;;;;;3.96;74.02;99746.44;108890;1270;23690;-79
2022/01/28 04:43:19;;;;;;;13.40;4.70;;;;;;;3.96;73.84;99745.11;109393;1267;22001;-79
2022/01/28 04:49:10;;;;;;;13.00;5.80;;;;;;;3.96;73.86;99750.33;108956;1267;23741;-80
2022/01/28 04:54:34;;;;;;;;;;;;;;;3.96;73.90;99755.22;108984;1270;21998;-81
2022/01/28 05:05:15;;;;;;;12.60;4.00;;;;;;;4.03;73.78;99759.84;108892;1270;22685;-79
2022/01/28 05:08:08;;;;;;;11.80;3.30;;;;;;;4.07;73.58;99764.31;109415;1264;22000;-80
2022/01/28 05:13:47;;;;;;;15.20;3.60;;;;;;;4.13;73.15;99763.45;109352;1264;21999;-81
2022/01/28 05:27:16;;;;;;;19.10;8.10;;;;;;;4.17;72.46;99768.64;108973;1270;23048;-79
2022/01/28 05:29:46;;;;;;;18.80;6.30;;;;;;;4.21;72.25;99769.48;109024;1270;23752;-80
2022/01/28 05:32:15;;;;;;;14.90;5.50;;;;;;;4.24;72.16;99775.15;108720;1273;22009;-81
2022/01/28 05:34:45;;;;;;;11.00;4.00;;;;;;;4.27;72.03;99773.65;108757;1267;22090;-82
2022/01/28 05:37:17;;;;;;;9.20;4.00;;;;;;;4.29;71.79;99774.83;109141;1267;21995;-80
2022/01/28 05:39:47;;;;;;;13.40;4.30;;;;;;;4.31;71.65;99778.85;108921;1267;23811;-80
2022/01/28 05:42:16;;;;;;;13.20;4.40;;;;;;;4.32;71.46;99782.75;108910;1267;22011;-80
2022/01/28 05:44:53;;;;;;;20.60;4.50;;;;;;;4.33;71.26;99788.76;109104;1267;22002;-80
2022/01/28 05:47:26;;;;;;;13.80;4.10;;;;;;;4.34;71.11;99790.23;109141;1268;22012;-81
2022/01/28 05:49:56;;;;;;;19.60;4.50;;;;;;;4.34;70.92;99790.98;109234;1264;23517;-80
2022/01/28 05:52:33;;;;;;;12.30;3.60;;;;;;;4.32;70.71;99791.20;109464;1262;23037;-82
2022/01/28 05:55:03;;;;;;;14.40;4.30;;;;;;;4.28;70.56;99798.13;109611;1264;22046;-81
2022/01/28 05:57:35;;;;;;;11.90;3.80;;;;;;;4.27;70.56;99803.27;109893;1259;23058;-83
2022/01/28 06:00:06;;;;;;;15.20;4.80;;;;;;;4.28;70.42;99807.59;109974;1259;21965;-85
2022/01/28 06:02:48;;;;;;;14.30;5.20;;;;;;;4.26;70.34;99808.39;110462;1259;21987;-84
2022/01/28 06:05:21;;;;;;;12.50;5.30;;;;;;;4.27;70.27;99815.85;110562;1257;22742;-85
2022/01/28 06:07:53;;;;;;;;;;;;;;;4.28;70.27;99819.78;110430;1258;21967;-84
2022/01/28 06:10:36;;;;;;;11.60;3.10;;;;;;;4.23;70.28;99823.17;110566;1259;21972;-85
2022/01/28 06:13:26;;;;;;;14.30;4.30;;;;;;;4.23;70.29;99834.13;110129;1259;24282;-84
2022/01/28 06:16:05;;;;;;;12.40;4.40;;;;;;;4.27;70.26;99837.33;110356;1259;23042;-80
2022/01/28 06:18:35;;;;;;;14.20;4.30;;;;;;;4.30;70.23;99843.35;109998;1260;21985;-84
2022/01/28 06:21:13;;;;;;;12.50;4.70;;;;;;;4.32;70.17;99856.21;109673;1262;22077;-81
2022/01/28 06:23:46;;;;;;;14.30;4.20;;;;;;;4.32;70.07;99861.90;109759;1261;21980;-84
2022/01/28 06:26:19;;;;;;;15.20;4.00;;;;;;;4.32;69.99;99865.80;109311;1267;21988;-84
2022/01/28 06:28:49;;;;;;;12.40;4.70;;;;;;;4.28;69.82;99872.94;109210;1265;23166;-82
2022/01/28 06:31:19;;;;;;;10.30;3.80;;;;;;;4.23;69.83;99884.48;109304;1267;23610;-83
2022/01/28 06:33:54;;;;;;;13.20;5.00;;;;;;;4.18;69.91;99893.17;109393;1265;22000;-82
2022/01/28 06:36:24;;;;;;;15.50;4.00;;;;;;;4.14;70.07;99904.30;109403;1265;21979;-82
2022/01/28 06:39:02;;;;;;;14.30;4.80;;;;;;;4.13;70.14;99904.80;109358;1265;21978;-83
2022/01/28 06:41:34;;;;;;;14.80;5.00;;;;;;;4.08;70.25;99906.09;109189;1270;21980;-82
2022/01/28 06:44:06;;;;;;;13.80;4.10;;;;;;;4.02;70.40;99917.20;109211;1268;21971;-82
2022/01/28 06:46:39;;;;;;;13.90;4.70;;;;;;;3.98;70.66;99917.36;109111;1267;23045;-85
2022/01/28 06:49:31;;;;;;;18.00;5.80;;;;;;;3.93;70.92;99920.98;109115;1267;21998;-84
2022/01/28 06:52:03;;;;;;;12.50;4.40;;;;;;;3.88;71.13;99927.86;109299;1264;23703;-81
2022/01/28 06:54:36;;;;;;;12.30;4.40;;;;;;;3.86;71.37;99930.66;109834;1262;22046;-80
2022/01/28 06:57:06;;;;;;;16.40;5.20;;;;;;;3.85;71.55;99934.81;109702;1265;23078;-83
2022/01/28 06:59:46;;;;;;;15.50;6.00;;;;;;;3.84;71.69;99942.88;109689;1262;21946;-83
2022/01/28 07:02:16;;;;;;;14.50;7.00;;;;;;;3.82;71.79;99938.00;109576;1262;22792;-83
2022/01/28 07:04:51;;;;;;;16.30;5.50;;;;;;;3.81;72.00;99945.09;109902;1262;22760;-84
2022/01/28 07:07:22;;;;;;;14.70;5.80;;;;;;;3.82;72.17;99954.00;109931;1262;22765;-82
2022/01/28 07:09:55;;;;;;;17.60;5.90;;;;;;;3.84;72.25;99955.77;109857;1261;21971;-76
2022/01/28 07:12:24;;;;;;;17.00;6.20;;;;;;;3.90;72.63;99955.63;109798;1262;23717;-77
2022/01/28 07:14:54;;;;;;;18.90;7.60;;;;;;;3.98;72.87;99952.09;109456;1261;21984;-75
2022/01/28 07:17:24;;;;;;;20.00;7.60;;;;;;;4.05;72.81;99962.10;109915;1257;23037;-77
2022/01/28 07:19:55;;;;;;;14.50;5.30;;;;;;;4.11;72.65;99964.05;110453;1258;22035;-78
2022/01/28 07:22:30;;;;;;;15.40;7.80;;;;;;;4.13;72.53;99969.23;109703;1264;22902;-78
2022/01/28 07:25:06;;;;;;;12.40;5.00;;;;;;;4.17;72.51;99975.98;109208;1266;21985;-78
2022/01/28 07:27:35;;;;;;;15.20;5.10;;;;;;;4.19;72.38;99983.64;109194;1264;22998;-78
2022/01/28 07:30:09;;;;;;;18.30;5.00;;;;;;;4.21;72.34;99989.27;109388;1264;23676;-78
2022/01/28 07:32:38;;;;;;;18.00;4.80;;;;;;;4.25;72.41;99997.67;109427;1264;22053;-77
2022/01/28 07:35:13;;;;;;;17.80;5.80;;;;;;;4.24;72.30;99998.55;109360;1265;22131;-80
2022/01/28 07:37:45;;;;;;;21.00;6.80;;;;;;;4.22;72.24;100004.49;108955;1270;23040;-78
2022/01/28 07:40:24;;;;;;;17.40;6.00;;;;;;;4.20;72.26;100012.49;109169;1264;21990;-79
2022/01/28 07:42:54;;;;;;;15.40;5.00;;;;;;;4.16;72.35;100022.10;109598;1264;23047;-80
2022/01/28 07:45:26;;;;;;;;;;;;;;;4.12;72.43;100023.52;109536;1264;22649;-80
2022/01/28 07:47:55;;;;;;;14.10;4.70;;;;;;;4.03;72.56;100027.29;109579;1264;23045;-79
2022/01/28 07:50:25;;;;;;;16.70;5.80;;;;;;;3.99;72.78;100027.80;109257;1265;22012;-78
2022/01/28 07:52:56;;;;;;;16.20;5.50;;;;;;;4.00;73.04;100033.80;109057;1267;23091;-79
2022/01/28 07:55:25;;;;;;;23.90;8.70;;;;;;;4.00;73.01;100043.40;108642;1267;22009;-79
2022/01/28 07:57:54;;;;;;;22.30;9.50;;;;;;;3.99;73.16;100042.96;109170;1267;22001;-78
2022/01/28 08:00:26;;;;;;;21.60;8.00;;;;;;;3.99;73.33;100049.77;109041;1270;24602;-79
2022/01/28 08:03:05;;;;;;;19.40;7.00;;;;;;;3.98;73.35;100058.71;108990;1271;22008;-79
2022/01/28 08:05:45;;;;;;;14.00;5.60;;;;;;;3.97;73.47;100058.48;108853;1270;23730;-78
2022/01/28 08:08:18;;;;;;;16.20;5.50;;;;;;;3.96;73.59;100061.52;108609;1270;23622;-78
2022/01/28 08:10:57;;;;;;;21.00;7.20;;;;;;;3.98;73.80;100066.59;108901;1267;21987;-78
2022/01/28 08:13:27;;;;;;;19.80;6.60;;;;;;;3.97;73.73;100074.48;109119;1268;21992;-78
2022/01/28 08:15:56;;;;;;;19.30;7.10;;;;;;;3.96;73.93;100082.56;109147;1268;23017;-79
2022/01/28 08:18:26;;;;;;;22.90;8.00;;;;;;;3.97;74.09;100094.21;109254;1264;21984;-78
2022/01/28 08:20:58;;;;;;;17.20;6.60;;;;;;;3.99;74.18;100098.17;109552;1260;22035;-77
2022/01/28 08:23:28;;;;;;;19.30;8.10;;;;;;;4.01;74.26;100098.35;109727;1261;21972;-78
2022/01/28 08:26:02;;;;;;;18.90;7.20;;;;;;;4.04;74.31;100101.82;109951;1262;23599;-82
2022/01/28 08:28:35;;;;;;;19.40;7.50;;;;;;;4.03;73.93;100105.01;109574;1265;21971;-84
2022/01/28 08:31:06;;;;;;;15.70;6.60;;;;;;;4.01;73.99;100112.48;109448;1265;21984;-83
2022/01/28 08:33:36;;;;;;;17.70;6.90;;;;;;;4.00;74.06;100118.10;109492;1265;23648;-84
2022/01/28 08:36:07;;;;;;;18.10;6.40;;;;;;;4.00;74.05;100123.02;108917;1271;22004;-81
2022/01/28 08:38:44;;;;;;;20.30;7.30;;;;;;;3.98;73.98;100127.87;109030;1270;23594;-82
2022/01/28 08:41:14;;;;;;;19.10;6.60;;;;;;;3.98;74.13;100135.02;109125;1267;21985;-83
2022/01/28 08:43:46;;;;;;;17.90;6.50;;;;;;;4.00;74.17;100140.46;108955;1273;22080;-83
2022/01/28 08:46:16;;;;;;;18.70;6.80;;;;;;;3.97;74.05;100148.02;108977;1272;23061;-83
2022/01/28 08:48:47;;;;;;;20.30;7.50;;;;;;;3.96;74.21;100156.84;108825;1273;21991;-83
2022/01/28 08:51:19;;;;;;;19.00;7.20;;;;;;;3.98;74.30;100160.43;108863;1273;22023;-83
2022/01/28 08:53:53;;;;;;;25.20;8.40;;;;;;;3.98;74.23;100167.42;108867;1269;23065;-83
2022/01/28 08:56:25;;;;;;;19.80;6.80;;;;;;;3.96;74.19;100170.57;109229;1270;21990;-84
2022/01/28 08:59:04;;;;;;;20.50;6.80;;;;;;;3.93;74.17;100183.38;108898;1270;22129;-83
2022/01/28 09:01:36;;;;;;;17.30;7.00;;;;;;;3.90;74.29;100191.17;109350;1264;21973;-83
2022/01/28 09:04:07;;;;;;;23.90;8.70;;;;;;;3.87;74.31;100193.63;109651;1267;23686;-84
2022/01/28 09:06:42;;;;;;;18.80;7.80;;;;;;;3.85;74.39;100192.43;109641;1264;24312;-84
2022/01/28 09:09:18;;;;;;;18.40;6.50;;;;;;;3.84;74.47;100203.34;109497;1267;22004;-84
2022/01/28 09:14:22;;;;;;;23.60;7.50;;;;;;;3.85;74.70;100221.86;109333;1268;21997;-83
2022/01/28 09:16:57;;;;;;;19.80;7.40;;;;;;;3.84;74.70;100229.50;109610;1262;23190;-85
2022/01/28 09:19:27;;;;;;;24.00;9.80;;;;;;;3.77;74.72;100236.11;109894;1262;23078;-82
2022/01/28 09:21:57;;;;;;;20.80;7.50;;;;;;;3.72;74.89;100237.35;109606;1262;23685;-83
2022/01/28 09:24:30;;;;;;;22.60;7.60;;;;;;;3.70;75.06;100241.40;109634;1262;22012;-83
2022/01/28 09:27:00;;;;;;;15.50;7.10;;;;;;;3.69;75.21;100249.27;109691;1259;21978;-84
2022/01/28 09:29:32;;;;;;;18.40;6.70;;;;;;;3.70;75.28;100253.76;109947;1259;21975;-84
2022/01/28 09:32:03;;;;;;;;;;;;;;;3.69;75.41;100256.77;109927;1262;21962;-83
2022/01/28 09:34:35;;;;;;;21.10;6.30;;;;;;;3.62;75.59;100267.85;109965;1262;22168;-84
2022/01/28 09:37:06;;;;;;;14.70;6.30;;;;;;;3.61;75.64;100268.99;109683;1262;22009;-83
2022/01/28 09:39:43;;;;;;;20.80;6.00;;;;;;;3.62;75.72;100276.02;109724;1262;23734;-83
2022/01/28 09:42:21;;;;;;;21.40;7.50;;;;;;;3.65;75.91;100280.48;109477;1265;21990;-84
2022/01/28 09:44:56;;;;;;;20.90;7.10;;;;;;;3.67;75.94;100289.70;109110;1271;21986;-84
2022/01/28 09:47:26;;;;;;;15.60;6.90;;;;;;;3.66;75.89;100299.18;108723;1274;22105;-82
2022/01/28 09:50:04;;;;;;;19.80;7.00;;;;;;;3.62;75.90;100303.18;108480;1276;22990;-82
2022/01/28 09:52:35;;;;;;;19.70;7.20;;;;;;;3.61;76.00;100315.12;108480;1276;21991;-83
2022/01/28 09:55:08;;;;;;;18.10;8.10;;;;;;;3.60;76.21;100314.65;108657;1279;22788;-84
2022/01/28 09:57:47;;;;;;;21.40;7.80;;;;;;;3.62;76.24;100321.98;108687;1276;22456;-83
2022/01/28 10:00:16;;;;;;;20.10;7.70;;;;;;;3.65;76.42;100322.93;108721;1273;22924;-84
2022/01/28 10:03:03;;;;;;;21.30;6.50;;;;;;;3.69;76.39;100326.31;108924;1270;23897;-83
2022/01/28 10:05:37;;;;;;;15.10;6.10;;;;;;;3.72;76.49;100334.06;108990;1267;21990;-83
2022/01/28 10:08:23;;;;;;;17.90;6.30;;;;;;;3.75;76.63;100336.90;109365;1264;23080;-83
2022/01/28 10:10:58;;;;;;;13.00;5.70;;;;;;;3.77;76.42;100338.87;109581;1264;21984;-83
2022/01/28 10:13:54;;;;;;;16.70;6.00;;;;;;;3.80;76.38;100336.77;109236;1267;22009;-83
2022/01/28 10:16:30;;;;;;;18.30;5.50;;;;;;;3.83;76.48;100340.68;109097;1267;21986;-83
2022/01/28 10:19:11;;;;;;;17.90;6.80;;;;;;;3.84;76.41;100353.52;109146;1267;23720;-84
2022/01/28 10:21:46;;;;;;;16.60;6.50;;;;;;;3.88;76.34;100355.83;109185;1267;22167;-83
2022/01/28 10:24:26;;;;;;;16.20;6.40;;;;;;;3.91;76.31;100358.68;109487;1263;22053;-84
2022/01/28 10:27:07;;;;;;;14.60;5.10;;;;;;;3.95;76.34;100368.41;109614;1264;21986;-84
2022/01/28 10:29:41;;;;;;;19.30;7.00;;;;;;;3.99;76.21;100367.56;109375;1264;23599;-83
2022/01/28 10:32:17;;;;;;;20.70;6.40;;;;;;;4.05;76.06;100373.55;110000;1257;23585;-83
2022/01/28 10:34:50;;;;;;;11.50;4.70;;;;;;;4.11;75.92;100377.25;110110;1259;23068;-83
2022/01/28 10:37:32;;;;;;;9.70;5.20;;;;;;;4.17;75.76;100383.91;109819;1262;22022;-84
2022/01/28 10:40:10;;;;;;;12.60;5.20;;;;;;;4.21;75.49;100389.16;109982;1262;23701;-83
2022/01/28 10:42:52;;;;;;;14.80;5.60;;;;;;;4.24;75.36;100393.80;109958;1262;21986;-84
2022/01/28 10:45:29;;;;;;;13.60;5.90;;;;;;;4.30;75.30;100400.64;109978;1262;21975;-83
2022/01/28 10:48:02;;;;;;;10.50;4.40;;;;;;;4.36;75.15;100406.05;109287;1268;23603;-84
2022/01/28 10:50:41;;;;;;;;;;;;;;;4.41;74.79;100410.16;109468;1268;21971;-83
2022/01/28 10:53:20;;;;;;;13.10;5.30;;;;;;;4.37;74.65;100415.01;109438;1267;22012;-84
2022/01/28 10:55:57;;;;;;;10.70;4.20;;;;;;;4.38;74.60;100416.86;108944;1273;21999;-83
2022/01/28 10:58:28;;;;;;;16.10;5.00;;;;;;;4.41;74.31;100420.09;109200;1272;22006;-84
2022/01/28 11:00:59;;;;;;;14.10;4.80;;;;;;;4.43;74.11;100422.68;109130;1270;21992;-84
2022/01/28 11:03:30;;;;;;;17.90;6.80;;;;;;;4.46;73.96;100428.59;109172;1270;22055;-84
2022/01/28 11:06:01;;;;;;;15.60;5.20;;;;;;;4.48;73.92;100433.83;109345;1270;22110;-84
2022/01/28 11:08:34;;;;;;;12.90;5.40;;;;;;;4.49;73.63;100436.14;109042;1270;23150;-83
2022/01/28 11:11:09;;;;;;;12.90;5.50;;;;;;;4.49;73.57;100444.34;109139;1270;22435;-83
2022/01/28 11:13:43;;;;;;;13.90;6.10;;;;;;;4.51;73.38;100443.33;109691;1259;24332;-83
2022/01/28 11:16:23;;;;;;;15.10;6.20;;;;;;;4.55;73.45;100444.77;110561;1257;23695;-83
2022/01/28 11:18:55;;;;;;;12.80;6.90;;;;;;;4.66;73.58;100451.20;110388;1257;22066;-83
2022/01/28 11:22:07;;;;;;;10.80;5.10;;;;;;;4.73;73.12;100451.83;109964;1262;22912;-83
2022/01/28 11:25:15;;;;;;;13.50;5.10;;;;;;;4.74;72.76;100457.13;109928;1265;23610;-84
2022/01/28 11:27:48;;;;;;;10.70;5.00;;;;;;;4.70;72.45;100457.30;109490;1265;23130;-83
2022/01/28 11:30:25;;;;;;;13.50;5.70;;;;;;;4.67;72.34;100460.83;109361;1265;22592;-83
2022/01/28 11:33:11;;;;;;;12.80;4.70;;;;;;;4.66;72.18;100468.62;109036;1270;23699;-84
2022/01/28 11:35:49;;;;;;;9.80;4.90;;;;;;;4.64;72.05;100471.77;108883;1274;23853;-83
2022/01/28 11:38:25;;;;;;;12.00;4.90;;;;;;;4.64;71.98;100475.59;109035;1274;22382;-84
2022/01/28 11:40:59;;;;;;;8.50;3.50;;;;;;;4.65;71.77;100481.61;109030;1274;22376;-84
2022/01/28 11:43:34;;;;;;;7.80;3.90;;;;;;;4.66;71.75;100481.20;108776;1274;22451;-84
2022/01/28 11:46:31;;;;;;;11.70;4.30;;;;;;;4.67;71.60;100482.98;108725;1273;22000;-83
2022/01/28 11:49:09;;;;;;;7.20;4.10;;;;;;;4.70;71.54;100488.67;108892;1273;21970;-84
2022/01/28 11:51:44;;;;;;;10.10;4.20;;;;;;;4.77;71.58;100493.15;109046;1270;22090;-83
2022/01/28 11:54:34;;;;;;;9.00;4.10;;;;;;;4.90;71.75;100492.64;109420;1263;22091;-84
2022/01/28 11:57:16;;;;;;;9.50;4.70;;;;;;;5.01;71.61;100490.84;109586;1264;23093;-83
2022/01/28 11:59:46;;;;;;;10.20;4.50;;;;;;;5.07;71.10;100500.10;109412;1267;21983;-84
2022/01/28 12:02:20;;;;;;;10.50;5.20;;;;;;;5.09;70.84;100505.34;109496;1266;22439;-84
2022/01/28 12:04:56;;;;;;;13.00;6.30;;;;;;;5.09;70.58;100511.65;109290;1268;22064;-83
2022/01/28 12:07:26;;;;;;;10.10;4.70;;;;;;;5.06;70.26;100515.23;109489;1267;21993;-84
2022/01/28 12:09:59;;;;;;;13.50;6.50;;;;;;;5.01;70.06;100515.67;109626;1265;21975;-84
2022/01/28 12:12:44;;;;;;;10.40;3.90;;;;;;;4.98;70.03;100514.34;109586;1265;22024;-85
2022/01/28 12:15:22;;;;;;;8.50;5.10;;;;;;;4.96;70.00;100520.39;110141;1262;21994;-84
2022/01/28 12:18:12;;;;;;;8.20;4.00;;;;;;;4.94;69.90;100525.41;109390;1264;22026;-84
2022/01/28 12:20:48;;;;;;;11.00;5.20;;;;;;;4.95;69.94;100532.17;109209;1268;23612;-84
2022/01/28 12:23:27;;;;;;;12.10;4.00;;;;;;;4.96;69.93;100543.59;108920;1270;21962;-84
2022/01/28 12:26:16;;;;;;;10.40;4.40;;;;;;;4.93;69.65;100546.64;109529;1270;22305;-84
2022/01/28 12:28:55;;;;;;;9.90;4.80;;;;;;;4.89;69.66;100544.90;109114;1270;23072;-85
2022/01/28 12:31:32;;;;;;;13.30;3.90;;;;;;;4.85;69.70;100548.68;108965;1273;22762;-84
2022/01/28 12:34:07;;;;;;;9.30;4.50;;;;;;;4.81;69.72;100552.67;108825;1276;23011;-84
2022/01/28 12:36:39;;;;;;;11.50;4.30;;;;;;;4.79;69.60;100563.55;108997;1273;21993;-85
2022/01/28 12:39:20;;;;;;;9.10;3.90;;;;;;;4.76;69.71;100571.30;109313;1267;22000;-84
2022/01/28 12:42:05;;;;;;;7.50;3.20;;;;;;;4.72;69.61;100579.60;109485;1268;23125;-85
2022/01/28 12:44:39;;;;;;;9.80;3.80;;;;;;;4.69;69.72;100574.45;109494;1267;22003;-84
2022/01/28 12:47:12;;;;;;;8.80;3.60;;;;;;;4.68;69.84;100575.23;109543;1267;22122;-84
2022/01/28 12:50:03;;;;;;;9.40;3.70;;;;;;;4.72;69.93;100576.81;109736;1263;23610;-85
2022/01/28 12:52:47;;;;;;;6.70;3.40;;;;;;;4.73;69.70;100577.23;109321;1270;22136;-84
2022/01/28 12:55:42;;;;;;;9.30;3.70;;;;;;;4.71;69.61;100583.89;109235;1271;22184;-85
2022/01/28 12:58:56;;;;;;;8.50;4.60;;;;;;;4.67;69.56;100584.70;109272;1266;22023;-84
2022/01/28 13:01:32;;;;;;;9.70;5.70;;;;;;;4.67;69.74;100593.06;109637;1264;21976;-85
2022/01/28 13:04:14;;;;;;;11.50;5.30;;;;;;;4.67;69.66;100602.69;109572;1264;22065;-83
2022/01/28 13:09:21;;;;;;;17.20;5.60;;;;;;;4.72;69.74;100613.07;109710;1265;21981;-83
2022/01/28 13:11:58;;;;;;;10.20;5.30;;;;;;;4.73;69.68;100609.39;110227;1259;24317;-83
2022/01/28 13:14:34;;;;;;;10.30;4.60;;;;;;;4.71;69.73;100617.18;110187;1259;21988;-84
2022/01/28 13:17:11;;;;;;;12.70;6.40;;;;;;;4.67;69.66;100623.63;110282;1259;21985;-83
2022/01/28 13:19:41;;;;;;;10.60;5.00;;;;;;;4.65;69.81;100623.44;110458;1257;21976;-85
2022/01/28 13:22:20;;;;;;;10.10;5.20;;;;;;;4.65;69.93;100624.81;109759;1262;21976;-83
2022/01/28 13:24:56;;;;;;;8.70;4.70;;;;;;;4.64;70.05;100627.34;109385;1267;23127;-84
2022/01/28 13:27:49;;;;;;;12.50;4.70;;;;;;;4.66;70.17;100637.80;109151;1269;21998;-83
2022/01/28 13:30:24;;;;;;;13.10;6.60;;;;;;;4.70;70.19;100653.24;109011;1273;22009;-83
2022/01/28 13:33:07;;;;;;;11.90;4.80;;;;;;;4.70;70.13;100660.52;108783;1273;22032;-84